createdAt,value
2022-12-16T00:00:20.980Z,0.10
2022-12-16T00:02:49.639Z,0.10
2022-12-16T00:05:19.942Z,0.10
2022-12-16T00:07:48.495Z,0.10
2022-12-16T00:10:17.158Z,0.20
2022-12-16T00:12:47.047Z,0.20
2022-12-16T00:15:15.644Z,0.20
2022-12-16T00:17:44.126Z,0.20
2022-12-16T00:20:13.931Z,0.20
2022-12-16T00:22:42.410Z,0.20
2022-12-16T00:25:11.252Z,0.20
2022-12-16T00:27:39.803Z,0.20
2022-12-16T00:30:11.636Z,0.20
2022-12-16T00:32:40.306Z,0.20
2022-12-16T00:35:09.621Z,0.20
2022-12-16T00:37:38.110Z,0.20
2022-12-16T00:40:08.190Z,0.20
2022-12-16T00:42:36.785Z,0.20
2022-12-16T00:45:06.047Z,0.50
2022-12-16T00:47:40.949Z,0.20
2022-12-16T00:50:12.232Z,0.20
2022-12-16T00:52:41.033Z,0.20
2022-12-16T00:55:10.703Z,0.20
2022-12-16T00:57:39.244Z,0.30
2022-12-16T01:00:12.990Z,0.30
2022-12-16T01:02:44.751Z,0.30
2022-12-16T01:05:16.533Z,0.30
2022-12-16T01:07:45.451Z,0.30
2022-12-16T01:10:14.197Z,0.30
2022-12-16T01:12:42.825Z,0.30
2022-12-16T01:15:13.177Z,0.30
2022-12-16T01:17:43.437Z,0.30
2022-12-16T01:20:13.415Z,0.30
2022-12-16T01:22:42.578Z,0.30
2022-12-16T01:25:14.025Z,0.30
2022-12-16T01:27:42.759Z,0.30
2022-12-16T01:30:13.116Z,0.40
2022-12-16T01:32:43.109Z,0.40
2022-12-16T01:35:36.389Z,0.40
2022-12-16T01:38:00.172Z,0.40
2022-12-16T01:40:28.847Z,0.40
2022-12-16T01:42:57.324Z,0.40
2022-12-16T01:45:36.771Z,0.40
2022-12-16T01:48:20.562Z,0.40
2022-12-16T01:50:50.375Z,0.40
2022-12-16T01:53:19.753Z,0.50
2022-12-16T01:55:51.702Z,0.50
2022-12-16T01:58:24.733Z,0.50
2022-12-16T02:00:54.533Z,0.80
2022-12-16T02:03:25.271Z,0.50
2022-12-16T02:05:54.871Z,0.50
2022-12-16T02:08:24.319Z,0.50
2022-12-16T02:11:09.740Z,0.60
2022-12-16T02:13:58.411Z,0.60
2022-12-16T02:16:34.428Z,0.60
2022-12-16T02:19:39.002Z,0.60
2022-12-16T02:22:22.683Z,0.60
2022-12-16T02:25:54.751Z,0.60
2022-12-16T02:28:48.941Z,0.60
2022-12-16T02:31:34.807Z,0.60
2022-12-16T02:34:16.095Z,0.60
2022-12-16T02:36:58.854Z,0.60
2022-12-16T02:39:35.212Z,0.60
2022-12-16T02:42:13.873Z,0.60
2022-12-16T02:44:52.479Z,0.60
2022-12-16T02:47:22.534Z,0.50
2022-12-16T02:49:53.105Z,0.50
2022-12-16T02:52:24.150Z,0.60
2022-12-16T02:54:59.920Z,0.60
2022-12-16T02:57:51.634Z,0.60
2022-12-16T03:00:23.658Z,0.60
2022-12-16T03:03:00.693Z,0.60
2022-12-16T03:05:34.771Z,0.60
2022-12-16T03:08:07.147Z,0.70
2022-12-16T03:10:41.414Z,0.60
2022-12-16T03:13:13.183Z,0.60
2022-12-16T03:15:45.064Z,0.60
2022-12-16T03:18:17.021Z,0.60
2022-12-16T03:20:51.306Z,0.60
2022-12-16T03:23:27.138Z,0.60
2022-12-16T03:26:02.921Z,0.70
2022-12-16T03:28:44.887Z,0.70
2022-12-16T03:31:27.442Z,0.70
2022-12-16T03:34:04.894Z,0.70
2022-12-16T03:36:36.511Z,0.70
2022-12-16T03:39:07.553Z,0.70
2022-12-16T03:41:37.091Z,0.70
2022-12-16T03:44:08.916Z,0.70
2022-12-16T03:46:37.806Z,0.70
2022-12-16T03:49:07.878Z,0.70
2022-12-16T03:51:36.395Z,0.70
2022-12-16T03:54:04.979Z,0.70
2022-12-16T03:56:33.562Z,0.70
2022-12-16T03:59:02.147Z,0.70
2022-12-16T04:01:30.747Z,0.70
2022-12-16T04:03:59.549Z,0.70
2022-12-16T04:06:29.462Z,0.70
2022-12-16T04:08:57.998Z,0.70
2022-12-16T04:11:44.158Z,0.70
2022-12-16T04:14:30.354Z,0.70
2022-12-16T04:17:16.920Z,0.70
2022-12-16T04:20:04.944Z,0.70
2022-12-16T04:22:55.960Z,0.70
2022-12-16T04:25:28.783Z,0.70
2022-12-16T04:27:58.723Z,0.70
2022-12-16T04:30:28.705Z,0.70
2022-12-16T04:33:18.509Z,0.70
2022-12-16T04:36:04.823Z,0.70
2022-12-16T04:38:51.934Z,0.70
2022-12-16T04:41:38.101Z,0.70
2022-12-16T04:44:24.790Z,0.70
2022-12-16T04:47:10.659Z,0.70
2022-12-16T04:49:56.944Z,0.70
2022-12-16T04:52:42.964Z,0.70
2022-12-16T04:55:30.765Z,0.70
2022-12-16T04:58:19.954Z,0.70
2022-12-16T05:01:08.151Z,0.70
2022-12-16T05:03:54.922Z,0.70
2022-12-16T05:06:41.216Z,0.70
2022-12-16T05:09:27.291Z,0.80
2022-12-16T05:12:14.708Z,0.70
2022-12-16T05:15:00.544Z,0.70
2022-12-16T05:17:46.494Z,0.70
2022-12-16T05:20:32.451Z,0.70
2022-12-16T05:23:18.626Z,0.70
2022-12-16T05:26:04.495Z,0.70
2022-12-16T05:28:51.852Z,0.70
2022-12-16T05:31:38.094Z,0.70
2022-12-16T05:34:24.025Z,0.70
2022-12-16T05:37:10.089Z,0.80
2022-12-16T05:39:56.088Z,0.70
2022-12-16T05:42:42.249Z,0.70
2022-12-16T05:45:29.407Z,0.80
2022-12-16T05:48:15.494Z,0.70
2022-12-16T05:51:03.870Z,0.70
2022-12-16T05:53:49.658Z,0.70
2022-12-16T05:56:35.400Z,0.80
2022-12-16T05:59:21.914Z,0.80
2022-12-16T06:02:09.130Z,0.80
2022-12-16T06:04:55.179Z,0.80
2022-12-16T06:07:41.139Z,0.80
2022-12-16T06:10:27.889Z,0.80
2022-12-16T06:13:13.720Z,0.80
2022-12-16T06:16:02.565Z,0.80
2022-12-16T06:18:54.235Z,0.80
2022-12-16T06:21:40.767Z,0.90
2022-12-16T06:24:26.833Z,0.90
2022-12-16T06:27:13.042Z,0.90
2022-12-16T06:29:58.951Z,0.90
2022-12-16T06:32:45.026Z,0.90
2022-12-16T06:35:32.265Z,0.90
2022-12-16T06:38:18.209Z,0.90
2022-12-16T06:41:04.177Z,0.90
2022-12-16T06:43:50.019Z,0.90
2022-12-16T06:46:36.170Z,0.90
2022-12-16T06:49:22.002Z,0.90
2022-12-16T06:52:09.188Z,0.90
2022-12-16T06:54:55.131Z,1.00
2022-12-16T06:57:40.829Z,1.00
2022-12-16T07:00:28.399Z,0.90
2022-12-16T07:03:14.576Z,1.00
2022-12-16T07:06:00.524Z,0.90
2022-12-16T07:08:47.646Z,1.00
2022-12-16T07:11:33.497Z,0.40
2022-12-16T07:14:19.543Z,1.00
2022-12-16T07:17:05.681Z,1.00
2022-12-16T07:19:51.706Z,1.00
2022-12-16T07:22:37.814Z,1.10
2022-12-16T07:25:27.118Z,1.00
2022-12-16T07:28:15.978Z,1.00
2022-12-16T07:31:02.621Z,1.00
2022-12-16T07:33:48.631Z,1.00
2022-12-16T07:36:34.506Z,1.00
2022-12-16T07:39:20.316Z,1.00
2022-12-16T07:42:12.791Z,1.00
2022-12-16T07:44:59.123Z,1.00
2022-12-16T07:47:41.462Z,1.10
2022-12-16T07:50:28.393Z,1.10
2022-12-16T07:53:15.031Z,1.10
2022-12-16T07:56:01.235Z,1.10
2022-12-16T07:58:48.746Z,1.10
2022-12-16T08:01:34.989Z,1.10
2022-12-16T08:04:20.858Z,1.10
2022-12-16T08:07:07.053Z,1.10
2022-12-16T08:10:04.707Z,1.10
2022-12-16T08:12:50.648Z,1.10
2022-12-16T08:15:38.116Z,1.10
2022-12-16T08:18:24.608Z,1.10
2022-12-16T08:21:10.705Z,1.10
2022-12-16T08:23:56.645Z,1.10
2022-12-16T08:26:42.432Z,1.10
2022-12-16T08:29:45.540Z,1.10
2022-12-16T08:32:34.564Z,1.20
2022-12-16T08:35:21.380Z,1.20
2022-12-16T08:38:13.656Z,1.20
2022-12-16T08:41:01.357Z,1.20
2022-12-16T08:43:50.841Z,1.30
2022-12-16T08:46:37.617Z,1.30
2022-12-16T08:49:25.192Z,1.30
2022-12-16T08:52:07.669Z,1.40
2022-12-16T08:54:53.395Z,1.40
2022-12-16T08:57:41.704Z,1.40
2022-12-16T09:00:34.598Z,1.50
2022-12-16T09:03:20.402Z,1.50
2022-12-16T09:06:08.089Z,1.60
2022-12-16T09:08:54.646Z,1.60
2022-12-16T09:11:41.759Z,1.60
2022-12-16T09:14:27.807Z,1.70
2022-12-16T09:17:13.748Z,1.70
2022-12-16T09:19:59.718Z,1.70
2022-12-16T09:22:47.229Z,1.70
2022-12-16T09:25:33.331Z,1.70
2022-12-16T09:28:19.325Z,1.70
2022-12-16T09:31:05.389Z,1.80
2022-12-16T09:33:51.610Z,1.80
2022-12-16T09:36:38.220Z,1.80
2022-12-16T09:39:25.594Z,1.90
2022-12-16T09:42:22.442Z,1.90
2022-12-16T09:45:18.294Z,1.90
2022-12-16T09:48:12.259Z,1.90
2022-12-16T09:51:01.848Z,1.90
2022-12-16T09:53:53.788Z,2.00
2022-12-16T09:56:47.473Z,2.00
2022-12-16T09:59:38.757Z,2.00
2022-12-16T10:02:30.539Z,2.00
2022-12-16T10:05:23.808Z,2.10
2022-12-16T10:08:19.477Z,2.10
2022-12-16T10:11:17.898Z,2.10
2022-12-16T10:14:15.994Z,2.20
2022-12-16T10:17:11.792Z,2.20
2022-12-16T10:20:09.334Z,2.30
2022-12-16T10:23:04.591Z,2.30
2022-12-16T10:25:59.721Z,2.40
2022-12-16T10:29:05.002Z,2.40
2022-12-16T10:31:48.302Z,2.50
2022-12-16T10:34:40.063Z,2.50
2022-12-16T10:37:31.659Z,2.60
2022-12-16T10:40:22.363Z,2.70
2022-12-16T10:43:24.747Z,2.60
2022-12-16T10:46:13.917Z,2.50
2022-12-16T10:49:00.123Z,2.60
2022-12-16T10:51:47.888Z,2.60
2022-12-16T10:54:52.442Z,2.50
2022-12-16T10:57:53.581Z,2.50
2022-12-16T11:00:58.047Z,2.50
2022-12-16T11:03:48.426Z,2.50
2022-12-16T11:06:40.079Z,2.50
2022-12-16T11:09:47.153Z,2.50
2022-12-16T11:12:45.736Z,2.50
2022-12-16T11:15:45.549Z,2.50
2022-12-16T11:18:35.020Z,2.50
2022-12-16T11:21:32.007Z,2.50
2022-12-16T11:24:31.178Z,2.50
2022-12-16T11:27:19.244Z,2.60
2022-12-16T11:30:10.176Z,2.50
2022-12-16T11:32:58.993Z,2.50
2022-12-16T11:35:48.397Z,2.50
2022-12-16T11:38:45.047Z,2.60
2022-12-16T11:41:43.020Z,2.60
2022-12-16T11:44:39.336Z,2.60
2022-12-16T11:47:37.427Z,2.60
2022-12-16T11:50:30.529Z,2.60
2022-12-16T11:53:18.199Z,2.60
2022-12-16T11:56:08.929Z,2.60
2022-12-16T11:59:05.381Z,2.60
2022-12-16T12:01:57.340Z,2.80
2022-12-16T12:04:43.736Z,2.50
2022-12-16T12:07:46.340Z,2.50
2022-12-16T12:10:55.906Z,2.50
2022-12-16T12:14:03.888Z,2.60
2022-12-16T12:17:01.130Z,2.60
2022-12-16T12:20:00.427Z,2.60
2022-12-16T12:22:54.661Z,2.60
2022-12-16T12:25:48.614Z,2.60
2022-12-16T12:28:49.162Z,2.50
2022-12-16T12:31:51.268Z,2.70
2022-12-16T12:34:49.273Z,2.50
2022-12-16T12:37:43.515Z,2.50
2022-12-16T12:40:48.063Z,2.50
2022-12-16T12:43:54.037Z,2.50
2022-12-16T12:46:48.775Z,2.50
2022-12-16T12:49:43.755Z,2.50
2022-12-16T12:52:42.750Z,2.50
2022-12-16T12:55:40.774Z,2.50
2022-12-16T12:58:28.918Z,2.50
2022-12-16T13:01:17.378Z,2.40
2022-12-16T13:04:19.153Z,2.40
2022-12-16T13:07:06.216Z,2.40
2022-12-16T13:09:54.103Z,2.40
2022-12-16T13:12:48.123Z,2.40
2022-12-16T13:15:52.574Z,2.40
2022-12-16T13:18:43.528Z,2.30
2022-12-16T13:22:07.005Z,2.30
2022-12-16T13:25:09.262Z,2.20
2022-12-16T13:28:14.785Z,2.10
2022-12-16T13:31:25.568Z,2.10
2022-12-16T13:34:17.840Z,2.00
2022-12-16T13:37:17.849Z,2.00
2022-12-16T13:40:24.015Z,1.90
2022-12-16T13:43:13.360Z,1.90
2022-12-16T13:46:01.801Z,1.90
2022-12-16T13:48:57.925Z,1.90
2022-12-16T13:52:18.844Z,2.10
2022-12-16T13:55:30.911Z,1.90
2022-12-16T13:58:24.085Z,1.90
2022-12-16T14:01:20.757Z,1.80
2022-12-16T14:04:09.189Z,1.80
2022-12-16T14:06:57.905Z,2.20
2022-12-16T14:09:52.425Z,1.80
2022-12-16T14:13:10.899Z,1.80
2022-12-16T14:16:13.328Z,1.80
2022-12-16T14:19:14.400Z,1.80
2022-12-16T14:22:07.438Z,1.70
2022-12-16T14:25:12.295Z,1.70
2022-12-16T14:27:59.054Z,1.70
2022-12-16T14:30:45.029Z,1.60
2022-12-16T14:33:36.467Z,1.70
2022-12-16T14:36:34.883Z,1.60
2022-12-16T14:39:17.283Z,1.50
2022-12-16T14:42:10.028Z,1.60
2022-12-16T14:44:56.987Z,1.50
2022-12-16T14:47:44.609Z,1.50
2022-12-16T14:50:40.440Z,1.50
2022-12-16T14:53:39.074Z,1.50
2022-12-16T14:56:36.661Z,1.60
2022-12-16T14:59:32.066Z,1.50
2022-12-16T15:02:35.023Z,1.50
2022-12-16T15:05:21.141Z,1.50
2022-12-16T15:08:07.469Z,1.60
2022-12-16T15:10:54.502Z,1.40
2022-12-16T15:13:40.851Z,1.60
2022-12-16T15:16:36.232Z,1.50
2022-12-16T15:19:23.213Z,1.70
2022-12-16T15:22:09.593Z,1.50
2022-12-16T15:24:57.598Z,1.50
2022-12-16T15:27:46.370Z,1.70
2022-12-16T15:30:54.854Z,1.50
2022-12-16T15:33:44.390Z,1.50
2022-12-16T15:36:44.282Z,1.50
2022-12-16T15:39:39.826Z,1.50
2022-12-16T15:42:38.755Z,1.50
2022-12-16T15:45:35.220Z,2.00
2022-12-16T15:48:40.143Z,1.50
2022-12-16T15:51:42.649Z,1.50
2022-12-16T15:54:36.770Z,1.80
2022-12-16T15:57:45.777Z,1.40
2022-12-16T16:00:42.426Z,1.80
2022-12-16T16:03:41.746Z,1.40
2022-12-16T16:06:36.048Z,1.40
2022-12-16T16:09:33.102Z,1.30
2022-12-16T16:12:19.036Z,1.30
2022-12-16T16:15:05.100Z,1.30
2022-12-16T16:17:51.135Z,1.30
2022-12-16T16:20:49.716Z,1.20
2022-12-16T16:23:36.133Z,1.20
2022-12-16T16:26:23.828Z,1.20
2022-12-16T16:29:09.816Z,1.20
2022-12-16T16:32:03.667Z,1.20
2022-12-16T16:34:50.197Z,1.20
2022-12-16T16:37:38.874Z,1.10
2022-12-16T16:40:37.359Z,1.10
2022-12-16T16:43:24.691Z,1.10
2022-12-16T16:46:13.833Z,1.10
2022-12-16T16:49:00.649Z,1.00
2022-12-16T16:51:47.059Z,1.00
2022-12-16T16:54:33.377Z,1.00
2022-12-16T16:57:19.827Z,1.00
2022-12-16T17:00:07.043Z,1.20
2022-12-16T17:02:53.346Z,0.90
2022-12-16T17:05:39.306Z,0.80
2022-12-16T17:08:25.251Z,0.80
2022-12-16T17:11:11.235Z,0.80
2022-12-16T17:13:57.252Z,0.70
2022-12-16T17:16:44.581Z,0.70
2022-12-16T17:19:30.361Z,0.60
2022-12-16T17:22:16.235Z,0.60
2022-12-16T17:25:02.382Z,0.60
2022-12-16T17:27:48.456Z,0.60
2022-12-16T17:30:40.822Z,0.50
2022-12-16T17:33:33.152Z,0.50
2022-12-16T17:36:19.737Z,0.50
2022-12-16T17:39:05.667Z,0.40
2022-12-16T17:41:52.474Z,0.40
2022-12-16T17:44:38.525Z,0.40
2022-12-16T17:47:24.575Z,0.40
2022-12-16T17:50:11.876Z,0.40
2022-12-16T17:52:57.998Z,0.60
2022-12-16T17:55:44.036Z,0.40
2022-12-16T17:58:31.087Z,0.40
2022-12-16T18:01:20.371Z,0.50
2022-12-16T18:04:07.855Z,0.50
2022-12-16T18:06:55.391Z,0.50
2022-12-16T18:09:41.569Z,0.60
2022-12-16T18:12:27.666Z,0.80
2022-12-16T18:15:13.472Z,0.70
2022-12-16T18:17:59.720Z,0.70
2022-12-16T18:20:45.665Z,0.80
2022-12-16T18:23:33.470Z,0.90
2022-12-16T18:26:22.306Z,0.90
2022-12-16T18:29:08.763Z,1.00
2022-12-16T18:31:55.390Z,1.00
2022-12-16T18:34:41.375Z,1.00
2022-12-16T18:37:31.031Z,1.10
2022-12-16T18:40:18.461Z,1.10
2022-12-16T18:43:04.536Z,1.20
2022-12-16T18:45:50.566Z,1.20
2022-12-16T18:48:36.827Z,1.30
2022-12-16T18:51:23.260Z,1.20
2022-12-16T18:54:09.680Z,1.30
2022-12-16T18:56:57.230Z,1.30
2022-12-16T18:59:43.323Z,1.30
2022-12-16T19:02:29.208Z,1.80
2022-12-16T19:05:15.216Z,1.40
2022-12-16T19:08:01.059Z,1.40
2022-12-16T19:10:47.266Z,1.40
2022-12-16T19:13:34.839Z,1.40
2022-12-16T19:16:21.344Z,1.50
2022-12-16T19:19:07.828Z,1.40
2022-12-16T19:24:59.846Z,1.50
2022-12-16T19:27:45.840Z,1.50
2022-12-16T19:30:33.199Z,1.50
2022-12-16T19:33:19.155Z,1.60
2022-12-16T19:36:05.086Z,1.50
2022-12-16T19:38:50.856Z,1.50
2022-12-16T19:41:38.163Z,1.50
2022-12-16T19:44:24.615Z,1.50
2022-12-16T19:47:11.908Z,1.50
2022-12-16T19:49:58.128Z,1.50
2022-12-16T19:52:44.356Z,1.60
2022-12-16T19:55:30.448Z,1.60
2022-12-16T19:58:16.535Z,1.60
2022-12-16T20:00:59.091Z,1.60
2022-12-16T20:03:46.873Z,1.60
2022-12-16T20:06:33.646Z,1.90
2022-12-16T20:09:20.262Z,1.70
2022-12-16T20:12:06.255Z,1.80
2022-12-16T20:14:53.425Z,1.90
2022-12-16T20:17:39.246Z,1.70
2022-12-16T20:20:27.335Z,1.80
2022-12-16T20:23:14.474Z,1.70
2022-12-16T20:26:00.633Z,1.70
2022-12-16T20:28:46.704Z,1.70
2022-12-16T20:31:32.602Z,1.70
2022-12-16T20:34:18.762Z,1.70
2022-12-16T20:37:06.495Z,1.70
2022-12-16T20:39:56.756Z,1.70
2022-12-16T20:43:04.163Z,1.80
2022-12-16T20:45:50.015Z,1.60
2022-12-16T20:48:36.670Z,1.80
2022-12-16T20:51:26.912Z,1.70
2022-12-16T20:54:14.365Z,1.70
2022-12-16T20:57:00.808Z,1.60
2022-12-16T20:59:47.087Z,1.60
2022-12-16T21:02:34.032Z,1.60
2022-12-16T21:05:21.684Z,1.50
2022-12-16T21:08:07.446Z,1.50
2022-12-16T21:11:03.371Z,1.50
2022-12-16T21:13:49.728Z,1.50
2022-12-16T21:14:28.263Z,1.50
2022-12-16T21:16:36.449Z,1.60
2022-12-16T21:19:26.678Z,1.50
2022-12-16T21:22:17.452Z,1.50
2022-12-16T21:25:03.793Z,1.40
2022-12-16T21:27:51.771Z,1.40
2022-12-16T21:30:38.403Z,1.40
2022-12-16T21:33:24.608Z,1.40
2022-12-16T21:36:11.157Z,1.30
2022-12-16T21:38:57.170Z,1.30
2022-12-16T21:41:43.122Z,1.30
2022-12-16T21:44:30.540Z,1.60
2022-12-16T21:47:17.012Z,1.30
2022-12-16T21:50:03.395Z,1.30
2022-12-16T21:52:49.657Z,1.30
2022-12-16T21:55:44.262Z,1.40
2022-12-16T21:58:31.293Z,1.30
2022-12-16T22:01:19.389Z,1.30
2022-12-16T22:04:05.468Z,1.30
2022-12-16T22:06:52.122Z,1.70
2022-12-16T22:09:38.496Z,1.30
2022-12-16T22:12:24.726Z,1.50
2022-12-16T22:15:10.689Z,1.30
2022-12-16T22:17:58.964Z,1.30
2022-12-16T22:20:45.145Z,1.40
2022-12-16T22:23:31.636Z,1.60
2022-12-16T22:26:19.068Z,1.40
2022-12-16T22:29:05.825Z,1.70
2022-12-16T22:31:56.964Z,1.40
2022-12-16T22:34:44.711Z,1.40
2022-12-16T22:37:30.492Z,1.40
2022-12-16T22:40:16.463Z,1.40
2022-12-16T22:43:03.064Z,1.40
2022-12-16T22:45:49.264Z,1.40
2022-12-16T22:48:35.430Z,1.70
2022-12-16T22:51:23.374Z,1.60
2022-12-16T22:54:09.463Z,1.50
2022-12-16T22:56:56.302Z,1.70
2022-12-16T22:59:42.403Z,1.50
2022-12-16T23:02:28.630Z,1.50
2022-12-16T23:05:14.443Z,1.50
2022-12-16T23:08:02.007Z,1.50
2022-12-16T23:10:47.138Z,1.60
2022-12-16T23:13:33.355Z,1.60
2022-12-16T23:16:19.637Z,1.60
2022-12-16T23:19:05.854Z,1.60
2022-12-16T23:21:51.788Z,1.60
2022-12-16T23:24:39.232Z,1.60
2022-12-16T23:27:25.275Z,1.60
2022-12-16T23:30:11.426Z,1.70
2022-12-16T23:32:57.610Z,1.70
2022-12-16T23:35:43.695Z,1.70
2022-12-16T23:38:29.606Z,1.70
2022-12-16T23:41:18.365Z,1.60
2022-12-16T23:44:04.313Z,1.70
2022-12-16T23:46:50.575Z,1.60
2022-12-16T23:49:36.459Z,1.60
2022-12-16T23:52:22.498Z,1.70
2022-12-16T23:55:08.305Z,1.60
2022-12-16T23:57:56.177Z,1.70
